Time;durP1;ratioP1;P1;durP2;ratioP2;P2;SDS_P1;SDS_P2;PMS_P1;PMS_P2;Temp;Humidity;BMP_temperature;BMP_pressure;BME280_temperature;BME280_humidity;BME280_pressure;Samples;Min_cycle;Max_cycle;Signal;HPM_P1;HPM_P2
2023/04/08 00:00:05;;;;;;;1999.90;999.90;;;8.30;99.90;;;;;;5055268;28;20029;-72
2023/04/08 00:02:31;;;;;;;1999.90;999.90;;;8.20;99.90;;;;;;5055208;28;20034;-72
2023/04/08 00:04:56;;;;;;;1999.90;999.90;;;8.20;99.90;;;;;;5055015;28;20030;-72
2023/04/08 00:07:22;;;;;;;1999.90;999.90;;;8.20;99.90;;;;;;5053405;28;20423;-72
2023/04/08 00:09:47;;;;;;;1999.90;999.90;;;8.20;99.90;;;;;;5054997;28;20041;-73
2023/04/08 00:12:13;;;;;;;1999.90;999.90;;;8.10;99.90;;;;;;5054851;28;20117;-72
2023/04/08 00:14:40;;;;;;;1999.90;999.90;;;8.10;99.90;;;;;;5054600;28;20029;-72
2023/04/08 00:17:06;;;;;;;1999.90;999.90;;;8.10;99.90;;;;;;5054589;28;20528;-72
2023/04/08 00:19:32;;;;;;;1999.90;999.90;;;8.10;99.90;;;;;;5054387;28;20052;-72
2023/04/08 00:21:58;;;;;;;1999.90;999.90;;;8.10;99.90;;;;;;5054910;28;20037;-72
2023/04/08 00:24:23;;;;;;;1999.90;999.90;;;8.10;99.90;;;;;;5054694;28;20083;-72
2023/04/08 00:26:49;;;;;;;1999.90;999.90;;;8.10;99.90;;;;;;5053183;28;20042;-72
2023/04/08 00:29:15;;;;;;;1999.90;999.90;;;8.00;99.90;;;;;;5053224;28;20045;-73
2023/04/08 00:31:40;;;;;;;1999.90;999.90;;;8.00;99.90;;;;;;5054822;28;20037;-72
2023/04/08 00:34:06;;;;;;;1999.90;999.90;;;8.00;99.90;;;;;;5054342;28;20030;-72
2023/04/08 00:36:31;;;;;;;1999.90;999.90;;;8.00;99.90;;;;;;5054049;28;20040;-72
2023/04/08 00:38:57;;;;;;;1999.90;999.90;;;7.90;99.90;;;;;;5054902;28;20036;-72
2023/04/08 00:41:24;;;;;;;1999.90;999.90;;;7.90;99.90;;;;;;5054461;28;20104;-72
2023/04/08 00:43:50;;;;;;;1999.90;999.90;;;7.80;99.90;;;;;;5054603;28;20084;-72
2023/04/08 00:46:16;;;;;;;1999.90;999.90;;;7.80;99.90;;;;;;5052997;28;20037;-72
2023/04/08 00:48:41;;;;;;;1999.90;999.90;;;7.80;99.90;;;;;;5054257;28;20036;-72
2023/04/08 00:51:07;;;;;;;1999.90;999.90;;;7.80;99.90;;;;;;5054517;28;20106;-72
2023/04/08 00:53:33;;;;;;;1999.90;999.90;;;7.70;99.90;;;;;;5054517;28;20037;-72
2023/04/08 00:56:00;;;;;;;1999.90;999.90;;;7.70;99.90;;;;;;5054268;28;20523;-72
2023/04/08 00:58:26;;;;;;;1999.90;999.90;;;7.60;99.90;;;;;;5054043;28;20033;-72
2023/04/08 01:01:02;;;;;;;1999.90;999.90;;;7.60;99.90;;;;;;5054513;28;20041;-71
2023/04/08 01:03:54;;;;;;;1999.90;999.90;;;7.60;99.90;;;;;;5054531;28;20025;-72
2023/04/08 01:06:41;;;;;;;1999.90;999.90;;;7.60;99.90;;;;;;5054321;28;20507;-72
2023/04/08 01:09:09;;;;;;;1999.90;999.90;;;7.60;99.90;;;;;;5054353;28;20108;-72
2023/04/08 01:11:40;;;;;;;1999.90;999.90;;;7.50;99.90;;;;;;5053240;28;20096;-72
2023/04/08 01:14:09;;;;;;;1999.90;999.90;;;7.50;99.90;;;;;;5053874;28;20040;-73
2023/04/08 01:16:38;;;;;;;1999.90;999.90;;;7.50;99.90;;;;;;5054040;28;20123;-72
2023/04/08 01:19:07;;;;;;;1999.90;999.90;;;7.40;99.90;;;;;;5052798;28;20080;-73
2023/04/08 01:21:32;;;;;;;1999.90;999.90;;;7.40;99.90;;;;;;5053923;28;20462;-72
2023/04/08 01:24:15;;;;;;;1999.90;999.90;;;7.30;99.90;;;;;;5053684;28;20115;-72
2023/04/08 01:26:42;;;;;;;1999.90;999.90;;;7.30;99.90;;;;;;5054042;28;20124;-72
2023/04/08 01:29:10;;;;;;;1999.90;999.90;;;7.20;99.90;;;;;;5053892;28;20041;-72
2023/04/08 01:31:36;;;;;;;1999.90;999.90;;;7.10;99.90;;;;;;5053995;28;20399;-72
2023/04/08 01:34:03;;;;;;;1999.90;999.90;;;7.10;99.90;;;;;;5053887;28;20503;-72
2023/04/08 01:36:31;;;;;;;1999.90;999.90;;;7.00;99.90;;;;;;5053665;28;20037;-72
2023/04/08 01:38:59;;;;;;;1999.90;999.90;;;6.90;99.90;;;;;;5054123;28;20517;-72
2023/04/08 01:41:26;;;;;;;1999.90;999.90;;;6.80;99.90;;;;;;5055577;28;20030;-72
2023/04/08 01:43:53;;;;;;;1999.90;999.90;;;6.70;99.90;;;;;;5057111;28;20041;-75
2023/04/08 01:46:20;;;;;;;1999.90;999.90;;;6.60;99.90;;;;;;5057325;28;20037;-72
2023/04/08 01:48:47;;;;;;;1999.90;999.90;;;6.60;99.90;;;;;;5057075;28;20033;-72
2023/04/08 01:51:14;;;;;;;1999.90;999.90;;;6.50;99.90;;;;;;5057343;28;20123;-72
2023/04/08 01:53:40;;;;;;;1999.90;999.90;;;6.50;99.90;;;;;;5057633;28;20038;-72
2023/04/08 01:56:11;;;;;;;1999.90;999.90;;;6.50;99.90;;;;;;5057632;28;20037;-72
2023/04/08 01:58:41;;;;;;;1999.90;999.90;;;6.40;99.90;;;;;;5057263;28;20101;-73
2023/04/08 02:01:11;;;;;;;1999.90;999.90;;;6.40;99.90;;;;;;5057514;28;20136;-72
2023/04/08 02:03:37;;;;;;;1999.90;999.90;;;6.30;99.90;;;;;;5057050;28;20029;-72
2023/04/08 02:06:03;;;;;;;1999.90;999.90;;;6.30;99.90;;;;;;5056910;28;20037;-72
2023/04/08 02:08:28;;;;;;;1999.90;999.90;;;6.30;99.90;;;;;;5057008;28;20025;-72
2023/04/08 02:10:54;;;;;;;1999.90;999.90;;;6.30;99.90;;;;;;5056595;28;20071;-72
2023/04/08 02:13:19;;;;;;;1999.90;999.90;;;6.30;99.90;;;;;;5056960;28;20561;-72
2023/04/08 02:15:55;;;;;;;1999.90;999.90;;;6.20;99.90;;;;;;5056280;28;20083;-72
2023/04/08 02:18:27;;;;;;;1999.90;999.90;;;6.20;99.90;;;;;;5056324;28;20037;-73
2023/04/08 02:21:00;;;;;;;1999.90;999.90;;;6.20;99.90;;;;;;5056257;28;20069;-73
2023/04/08 02:23:28;;;;;;;1999.90;999.90;;;6.10;99.90;;;;;;5056979;28;20036;-72
2023/04/08 02:25:55;;;;;;;1999.90;999.90;;;6.10;99.90;;;;;;5056430;28;20113;-72
2023/04/08 02:28:22;;;;;;;1999.90;999.90;;;6.10;99.90;;;;;;5056540;28;20034;-72
2023/04/08 02:30:50;;;;;;;1999.90;999.90;;;6.00;99.90;;;;;;5056583;28;20969;-72
2023/04/08 02:33:19;;;;;;;1999.90;999.90;;;6.00;99.90;;;;;;5056630;28;20076;-72
2023/04/08 02:35:46;;;;;;;1999.90;999.90;;;6.10;99.90;;;;;;5056245;28;20033;-72
2023/04/08 02:38:12;;;;;;;1999.90;999.90;;;6.10;99.90;;;;;;5054273;28;20037;-72
2023/04/08 02:40:38;;;;;;;1999.90;999.90;;;6.10;99.90;;;;;;5056470;28;20445;-73
2023/04/08 02:43:04;;;;;;;1999.90;999.90;;;6.00;99.90;;;;;;5056552;28;20496;-72
2023/04/08 02:45:32;;;;;;;1999.90;999.90;;;6.00;99.90;;;;;;5054729;28;20040;-71
2023/04/08 02:48:01;;;;;;;1999.90;999.90;;;5.90;99.90;;;;;;5055990;28;20112;-72
2023/04/08 02:50:26;;;;;;;1999.90;999.90;;;5.80;99.90;;;;;;5056309;28;20033;-72
2023/04/08 02:52:52;;;;;;;1999.90;999.90;;;5.80;99.90;;;;;;5054792;28;20069;-72
2023/04/08 02:55:18;;;;;;;1999.90;999.90;;;5.80;99.90;;;;;;5056004;28;20033;-72
2023/04/08 02:57:46;;;;;;;1999.90;999.90;;;5.70;99.90;;;;;;5056092;28;20418;-72
2023/04/08 03:00:12;;;;;;;1999.90;999.90;;;5.60;99.90;;;;;;5055869;28;20049;-72
2023/04/08 03:02:38;;;;;;;1999.90;999.90;;;5.50;99.90;;;;;;5055814;28;20425;-72
2023/04/08 03:05:04;;;;;;;1999.90;999.90;;;5.50;99.90;;;;;;5055835;28;20044;-74
2023/04/08 03:07:30;;;;;;;1999.90;999.90;;;5.50;99.90;;;;;;5055899;28;20083;-73
2023/04/08 03:09:55;;;;;;;1999.90;999.90;;;5.40;99.90;;;;;;5056140;28;20041;-72
2023/04/08 03:12:21;;;;;;;1999.90;999.90;;;5.40;99.90;;;;;;5054468;28;20443;-71
2023/04/08 03:14:48;;;;;;;1999.90;999.90;;;5.40;99.90;;;;;;5055484;28;20033;-72
2023/04/08 03:17:13;;;;;;;1999.90;999.90;;;5.30;99.90;;;;;;5055884;28;20038;-72
2023/04/08 03:19:39;;;;;;;1999.90;999.90;;;5.30;99.90;;;;;;5053615;28;20522;-72
2023/04/08 03:22:05;;;;;;;1999.90;999.90;;;5.20;99.90;;;;;;5056003;28;20049;-71
2023/04/08 03:24:30;;;;;;;1999.90;999.90;;;5.20;99.90;;;;;;5055616;28;20116;-71
2023/04/08 03:26:56;;;;;;;1999.90;999.90;;;5.10;99.90;;;;;;5055292;28;20042;-72
2023/04/08 03:29:21;;;;;;;1999.90;999.90;;;5.00;99.90;;;;;;5055659;28;20029;-72
2023/04/08 03:31:47;;;;;;;1999.90;999.90;;;4.90;99.90;;;;;;5055671;28;20067;-72
2023/04/08 03:34:12;;;;;;;1999.90;999.90;;;4.90;99.90;;;;;;5055402;28;20061;-72
2023/04/08 03:36:38;;;;;;;1999.90;999.90;;;4.80;99.90;;;;;;5054955;28;20045;-72
2023/04/08 03:39:04;;;;;;;1999.90;999.90;;;4.90;99.90;;;;;;5078046;22;20104;-77
2023/04/08 03:41:30;;;;;;;1999.90;999.90;;;5.00;99.90;;;;;;5055744;28;20025;-77
2023/04/08 03:43:56;;;;;;;1999.90;999.90;;;5.00;99.90;;;;;;5053685;28;20029;-77
2023/04/08 03:46:22;;;;;;;1999.90;999.90;;;5.00;99.90;;;;;;5055422;28;20037;-77
2023/04/08 03:48:47;;;;;;;1999.90;999.90;;;5.00;99.90;;;;;;5070755;28;20029;-78
2023/04/08 03:51:13;;;;;;;1999.90;999.90;;;5.00;99.90;;;;;;5055069;28;20622;-77
2023/04/08 03:53:39;;;;;;;1999.90;999.90;;;5.00;99.90;;;;;;5070701;28;20060;-77
2023/04/08 03:56:05;;;;;;;1999.90;999.90;;;5.10;99.90;;;;;;5055135;28;20139;-78
2023/04/08 03:58:30;;;;;;;1999.90;999.90;;;5.10;99.90;;;;;;5054788;28;20029;-77
2023/04/08 04:00:56;;;;;;;1999.90;999.90;;;5.20;99.90;;;;;;5055348;28;20371;-77
2023/04/08 04:03:22;;;;;;;1999.90;999.90;;;5.20;99.90;;;;;;5054952;28;20487;-77
2023/04/08 04:05:47;;;;;;;1999.90;999.90;;;5.10;99.90;;;;;;5053404;28;20033;-78
2023/04/08 04:08:13;;;;;;;1999.90;999.90;;;5.20;99.90;;;;;;5070479;28;20157;-77
2023/04/08 04:10:38;;;;;;;1999.90;999.90;;;5.10;99.90;;;;;;5055028;28;20129;-77
2023/04/08 04:13:04;;;;;;;1999.90;999.90;;;5.10;99.90;;;;;;5070371;28;20515;-78
2023/04/08 04:15:30;;;;;;;1999.90;999.90;;;5.10;99.90;;;;;;5070083;28;20038;-77
2023/04/08 04:17:56;;;;;;;1999.90;999.90;;;5.10;99.90;;;;;;5054818;28;20033;-78
2023/04/08 04:20:21;;;;;;;1999.90;999.90;;;5.10;99.90;;;;;;5054382;28;20148;-77
2023/04/08 04:22:47;;;;;;;1999.90;999.90;;;5.10;99.90;;;;;;5054962;28;20383;-78
2023/04/08 04:25:12;;;;;;;1999.90;999.90;;;5.00;99.90;;;;;;5054718;28;20772;-77
2023/04/08 04:27:38;;;;;;;1999.90;999.90;;;5.10;99.90;;;;;;5054765;28;20037;-77
2023/04/08 04:30:06;;;;;;;1999.90;999.90;;;5.10;99.90;;;;;;5054767;28;20044;-78
2023/04/08 04:32:31;;;;;;;1999.90;999.90;;;5.00;99.90;;;;;;5054721;28;20740;-77
2023/04/08 04:34:57;;;;;;;1999.90;999.90;;;5.10;99.90;;;;;;5054496;28;20036;-77
2023/04/08 04:37:22;;;;;;;1999.90;999.90;;;5.20;99.90;;;;;;5054148;28;20526;-77
2023/04/08 04:39:48;;;;;;;1999.90;999.90;;;5.20;99.90;;;;;;5070078;28;20033;-77
2023/04/08 04:42:13;;;;;;;1999.90;999.90;;;5.20;99.90;;;;;;5055900;28;20506;-77
2023/04/08 04:44:39;;;;;;;1999.90;999.90;;;5.20;99.90;;;;;;5054385;28;20040;-77
2023/04/08 04:47:05;;;;;;;1999.90;999.90;;;5.20;99.90;;;;;;5054227;28;20038;-78
2023/04/08 04:49:30;;;;;;;1999.90;999.90;;;5.20;99.90;;;;;;5054641;28;20375;-77
2023/04/08 04:51:56;;;;;;;1999.90;999.90;;;5.20;99.90;;;;;;5069796;28;20132;-78
2023/04/08 04:54:22;;;;;;;1999.90;999.90;;;5.20;99.90;;;;;;5054277;28;20498;-78
2023/04/08 04:56:47;;;;;;;1999.90;999.90;;;5.20;99.90;;;;;;5054537;28;20391;-77
2023/04/08 04:59:13;;;;;;;1999.90;999.90;;;5.20;99.90;;;;;;5054078;28;20791;-77
2023/04/08 05:01:39;;;;;;;1999.90;999.90;;;5.20;99.90;;;;;;5069656;28;20041;-78
2023/04/08 05:04:06;;;;;;;1999.90;999.90;;;5.20;99.90;;;;;;5054028;28;20033;-78
2023/04/08 05:06:31;;;;;;;1999.90;999.90;;;5.20;99.90;;;;;;5069656;28;20034;-78
2023/04/08 05:08:57;;;;;;;1999.90;999.90;;;5.20;99.90;;;;;;5054086;28;20037;-78
2023/04/08 05:11:22;;;;;;;1999.90;999.90;;;5.30;99.90;;;;;;5053943;28;20045;-77
2023/04/08 05:13:48;;;;;;;1999.90;999.90;;;5.30;99.90;;;;;;5052546;28;20045;-77
2023/04/08 05:16:15;;;;;;;1999.90;999.90;;;5.40;99.90;;;;;;5055770;28;20120;-77
2023/04/08 05:18:40;;;;;;;1999.90;999.90;;;5.50;99.90;;;;;;5072935;28;20026;-78
2023/04/08 05:21:06;;;;;;;1999.90;999.90;;;5.60;99.90;;;;;;5057513;28;20033;-77
2023/04/08 05:23:31;;;;;;;1999.90;999.90;;;5.70;99.90;;;;;;5057719;28;20037;-77
2023/04/08 05:25:57;;;;;;;1999.90;999.90;;;5.70;99.90;;;;;;5055772;28;20446;-77
2023/04/08 05:28:22;;;;;;;1999.90;999.90;;;5.80;99.90;;;;;;5057362;28;20395;-77
2023/04/08 05:30:50;;;;;;;1999.90;999.90;;;5.80;99.90;;;;;;5072991;28;20416;-77
2023/04/08 05:33:15;;;;;;;1999.90;999.90;;;5.90;99.90;;;;;;5057259;28;20037;-77
2023/04/08 05:35:41;;;;;;;1999.90;999.90;;;6.00;99.90;;;;;;5057399;28;20025;-77
2023/04/08 05:38:06;;;;;;;1999.90;999.90;;;6.00;99.90;;;;;;5055447;28;20087;-77
2023/04/08 05:40:32;;;;;;;1999.90;999.90;;;6.10;99.90;;;;;;5055945;28;20121;-77
2023/04/08 05:42:57;;;;;;;1999.90;999.90;;;6.20;99.90;;;;;;5057628;28;20421;-77
2023/04/08 05:45:23;;;;;;;1999.90;999.90;;;6.30;99.90;;;;;;5056138;28;20030;-77
2023/04/08 05:47:49;;;;;;;1999.90;999.90;;;6.40;99.90;;;;;;5057401;28;20038;-76
2023/04/08 05:50:15;;;;;;;1999.90;999.90;;;6.40;99.90;;;;;;5057820;28;20071;-76
2023/04/08 05:52:44;;;;;;;1999.90;999.90;;;6.50;99.90;;;;;;5057250;28;20487;-77
2023/04/08 05:55:10;;;;;;;1999.90;999.90;;;6.50;99.90;;;;;;5057061;28;20115;-77
2023/04/08 05:57:36;;;;;;;1999.90;999.90;;;6.60;99.90;;;;;;5056634;28;20192;-77
2023/04/08 06:00:04;;;;;;;1999.90;999.90;;;6.80;99.90;;;;;;5057150;28;20108;-77
2023/04/08 06:02:29;;;;;;;1999.90;999.90;;;6.90;99.90;;;;;;5056852;28;20038;-78
2023/04/08 06:04:55;;;;;;;1999.90;999.90;;;7.00;99.90;;;;;;5055373;28;20029;-77
2023/04/08 06:07:20;;;;;;;1999.90;999.90;;;7.10;99.90;;;;;;5056726;28;20163;-77
2023/04/08 06:09:46;;;;;;;1999.90;999.90;;;7.30;99.90;;;;;;5056398;28;20044;-77
2023/04/08 06:12:11;;;;;;;1999.90;999.90;;;7.30;99.90;;;;;;5056693;28;20172;-77
2023/04/08 06:14:37;;;;;;;1999.90;999.90;;;7.40;99.90;;;;;;5056518;28;20387;-77
2023/04/08 06:17:03;;;;;;;1999.90;999.90;;;7.50;99.90;;;;;;5072100;28;20148;-77
2023/04/08 06:19:29;;;;;;;1999.90;999.90;;;7.50;99.90;;;;;;5072094;28;20029;-77
2023/04/08 06:21:57;;;;;;;1999.90;999.90;;;7.60;99.90;;;;;;5056895;28;20029;-77
2023/04/08 06:24:24;;;;;;;1999.90;999.90;;;7.70;99.90;;;;;;5056146;28;20026;-78
2023/04/08 06:26:51;;;;;;;1999.90;999.90;;;7.80;99.90;;;;;;5071764;28;20038;-77
2023/04/08 06:29:17;;;;;;;1999.90;999.90;;;8.00;99.90;;;;;;5056453;28;20060;-77
2023/04/08 06:31:42;;;;;;;1999.90;999.90;;;8.10;99.90;;;;;;5056472;28;20037;-77
2023/04/08 06:34:08;;;;;;;1999.90;999.90;;;8.10;99.90;;;;;;5056162;28;20021;-76
2023/04/08 06:36:33;;;;;;;1999.90;999.90;;;8.10;99.90;;;;;;5055357;28;20519;-77
2023/04/08 06:38:59;;;;;;;1999.90;999.90;;;8.20;99.90;;;;;;5054315;28;20037;-78
2023/04/08 06:41:25;;;;;;;1999.90;999.90;;;8.10;99.90;;;;;;5057501;28;20042;-80
2023/04/08 06:43:50;;;;;;;1999.90;999.90;;;8.10;99.90;;;;;;5058132;28;20034;-80
2023/04/08 06:46:16;;;;;;;1999.90;999.90;;;8.00;99.90;;;;;;5072773;28;20479;-79
2023/04/08 06:48:41;;;;;;;1999.90;999.90;;;7.90;99.90;;;;;;5056765;28;20491;-79
2023/04/08 06:51:07;;;;;;;1999.90;999.90;;;7.90;99.90;;;;;;5056629;28;20403;-80
2023/04/08 06:53:32;;;;;;;1999.90;999.90;;;7.90;99.90;;;;;;5056983;28;20040;-80
2023/04/08 06:55:59;;;;;;;1999.90;999.90;;;7.90;99.90;;;;;;5056723;28;20034;-80
2023/04/08 06:58:24;;;;;;;1999.90;999.90;;;7.80;99.90;;;;;;5043708;28;20531;-79
2023/04/08 07:00:50;;;;;;;1999.90;999.90;;;7.80;99.90;;;;;;5048480;28;20164;-78
2023/04/08 07:03:16;;;;;;;1999.90;999.90;;;7.80;99.90;;;;;;5063553;28;20880;-78
2023/04/08 07:05:41;;;;;;;1999.90;999.90;;;7.90;99.90;;;;;;5069449;28;20116;-78
2023/04/08 07:08:07;;;;;;;1999.90;999.90;;;8.00;99.90;;;;;;5052938;28;20037;-78
2023/04/08 07:10:36;;;;;;;1999.90;999.90;;;8.00;99.90;;;;;;5086929;28;20199;-76
2023/04/08 07:13:02;;;;;;;1999.90;999.90;;;8.10;99.90;;;;;;5061464;28;20053;-77
2023/04/08 07:15:28;;;;;;;1999.90;999.90;;;8.10;99.90;;;;;;5047016;28;20025;-76
2023/04/08 07:17:57;;;;;;;1999.90;999.90;;;8.20;99.90;;;;;;5049931;28;20041;-76
2023/04/08 07:20:24;;;;;;;1999.90;999.90;;;8.20;99.90;;;;;;5038958;28;20029;-77
2023/04/08 07:22:50;;;;;;;1999.90;999.90;;;8.30;99.90;;;;;;5066908;28;20033;-82
2023/04/08 07:25:16;;;;;;;1999.90;999.90;;;8.40;99.90;;;;;;5087595;28;20485;-79
2023/04/08 07:27:42;;;;;;;1999.90;999.90;;;8.40;99.90;;;;;;5062271;28;20033;-75
2023/04/08 07:30:08;;;;;;;1999.90;999.90;;;8.50;99.90;;;;;;5056886;28;20084;-76
2023/04/08 07:32:33;;;;;;;1999.90;999.90;;;8.70;99.90;;;;;;5055245;28;20041;-77
2023/04/08 07:35:00;;;;;;;1999.90;999.90;;;8.70;99.90;;;;;;5066935;28;20401;-76
2023/04/08 07:37:26;;;;;;;1999.90;999.90;;;8.90;99.90;;;;;;5075816;28;20045;-76
2023/04/08 07:39:52;;;;;;;1999.90;999.90;;;9.00;99.90;;;;;;5073668;28;20033;-76
2023/04/08 07:42:17;;;;;;;1999.90;999.90;;;9.00;99.90;;;;;;5071415;28;20052;-76
2023/04/08 07:44:44;;;;;;;1999.90;999.90;;;9.30;99.90;;;;;;5075532;28;20029;-78
2023/04/08 07:47:10;;;;;;;1999.90;999.90;;;9.40;99.90;;;;;;5075488;28;20063;-78
2023/04/08 07:49:37;;;;;;;1999.90;999.90;;;9.50;99.90;;;;;;5075890;28;20087;-75
2023/04/08 07:52:02;;;;;;;1999.90;999.90;;;9.50;99.90;;;;;;5075631;28;20107;-75
2023/04/08 07:54:32;;;;;;;1999.90;999.90;;;9.70;99.90;;;;;;5075433;28;20423;-75
2023/04/08 07:56:58;;;;;;;1999.90;999.90;;;9.80;99.90;;;;;;5075425;28;20087;-75
2023/04/08 07:59:24;;;;;;;1999.90;999.90;;;9.90;99.90;;;;;;5065345;28;20063;-76
2023/04/08 08:01:50;;;;;;;1999.90;999.90;;;10.20;99.90;;;;;;5056084;28;20447;-76
2023/04/08 08:04:16;;;;;;;1999.90;999.90;;;10.30;99.90;;;;;;5084960;28;20097;-80
2023/04/08 08:06:42;;;;;;;1999.90;999.90;;;10.30;99.90;;;;;;5057042;28;20048;-79
2023/04/08 08:09:08;;;;;;;1999.90;999.90;;;10.40;99.90;;;;;;5048582;28;20508;-78
2023/04/08 08:11:33;;;;;;;1999.90;999.90;;;10.30;99.90;;;;;;5037392;28;20085;-77
2023/04/08 08:13:59;;;;;;;1999.90;999.90;;;10.30;99.90;;;;;;5052952;28;20040;-78
2023/04/08 08:16:29;;;;;;;1999.90;999.90;;;10.40;99.90;;;;;;5081049;28;20084;-78
2023/04/08 08:18:54;;;;;;;1999.90;999.90;;;10.50;99.90;;;;;;5068979;28;20096;-76
2023/04/08 08:21:20;;;;;;;1999.90;999.90;;;10.60;99.90;;;;;;5073750;28;20040;-76
2023/04/08 08:23:46;;;;;;;1999.90;999.90;;;10.70;99.90;;;;;;5071172;28;20032;-76
2023/04/08 08:26:12;;;;;;;1999.90;999.90;;;10.70;99.90;;;;;;5053633;28;20404;-76
2023/04/08 08:28:39;;;;;;;1999.90;999.90;;;10.70;99.90;;;;;;5064532;28;20494;-76
2023/04/08 08:31:05;;;;;;;1999.90;999.90;;;10.90;99.90;;;;;;5060691;28;20041;-76
2023/04/08 08:33:32;;;;;;;1999.90;999.90;;;10.80;99.90;;;;;;5055055;28;20060;-76
2023/04/08 08:35:57;;;;;;;1999.90;999.90;;;11.00;99.90;;;;;;5054657;28;20111;-76
2023/04/08 08:38:23;;;;;;;1999.90;999.90;;;11.10;99.90;;;;;;5062369;28;20071;-78
2023/04/08 08:40:59;;;;;;;1999.90;999.90;;;11.00;99.90;;;;;;5066661;28;20033;-77
2023/04/08 08:43:25;;;;;;;1999.90;999.90;;;11.10;99.90;;;;;;5091324;28;20052;-77
2023/04/08 08:45:50;;;;;;;1999.90;999.90;;;11.10;99.90;;;;;;5075498;28;20029;-76
2023/04/08 08:48:16;;;;;;;1999.90;999.90;;;11.40;99.90;;;;;;5075063;28;20037;-77
2023/04/08 08:50:42;;;;;;;1999.90;999.90;;;11.50;99.90;;;;;;5063279;28;20037;-77
2023/04/08 08:53:07;;;;;;;1999.90;999.90;;;11.80;99.70;;;;;;5056481;28;20129;-79
2023/04/08 08:55:33;;;;;;;1999.90;999.90;;;12.20;97.20;;;;;;5053068;28;20061;-78
2023/04/08 08:58:03;;;;;;;1999.90;999.90;;;12.00;96.40;;;;;;5051577;28;20484;-77
2023/04/08 09:00:41;;;;;;;1999.90;999.90;;;12.10;97.30;;;;;;5054178;28;20033;-76
2023/04/08 09:03:17;;;;;;;1999.90;999.90;;;12.40;98.30;;;;;;5054014;28;20515;-76
2023/04/08 09:05:54;;;;;;;1999.90;999.90;;;12.30;97.30;;;;;;5053884;28;20034;-77
2023/04/08 09:08:24;;;;;;;1999.90;999.90;;;12.20;97.30;;;;;;5054040;28;20044;-77
2023/04/08 09:10:49;;;;;;;1999.90;999.90;;;12.20;97.60;;;;;;5054812;28;20376;-76
2023/04/08 09:13:15;;;;;;;1999.90;999.90;;;12.30;97.70;;;;;;5054316;28;20051;-76
2023/04/08 09:16:04;;;;;;;1999.90;999.90;;;12.70;96.40;;;;;;5054045;28;20787;-78
2023/04/08 09:18:31;;;;;;;1999.90;999.90;;;13.00;96.40;;;;;;5052946;28;20080;-77
2023/04/08 09:20:58;;;;;;;1999.90;999.90;;;13.10;95.40;;;;;;5054631;28;20034;-82
2023/04/08 09:23:36;;;;;;;1999.90;999.90;;;13.20;94.90;;;;;;5056557;28;20113;-78
2023/04/08 09:26:12;;;;;;;1999.90;999.90;;;13.20;94.30;;;;;;5054027;28;20041;-79
2023/04/08 09:28:39;;;;;;;1999.90;999.90;;;13.20;94.50;;;;;;5053433;28;20035;-78
2023/04/08 09:31:21;;;;;;;1999.90;999.90;;;13.40;94.00;;;;;;5054145;28;20040;-78
2023/04/08 09:33:56;;;;;;;1999.90;999.90;;;13.70;94.20;;;;;;5051413;28;20046;-76
2023/04/08 09:36:22;;;;;;;1999.90;999.90;;;13.60;94.60;;;;;;5032447;28;20038;-76
2023/04/08 09:38:48;;;;;;;1999.90;999.90;;;13.40;93.60;;;;;;5073286;22;20045;-77
2023/04/08 09:41:16;;;;;;;1999.90;999.90;;;13.30;95.30;;;;;;5067205;28;20596;-77
2023/04/08 09:43:49;;;;;;;1999.90;999.90;;;13.20;95.10;;;;;;5067368;28;20021;-75
2023/04/08 09:46:17;;;;;;;1999.90;999.90;;;12.90;94.20;;;;;;5064115;28;20821;-77
2023/04/08 09:49:00;;;;;;;1999.90;999.90;;;12.80;94.00;;;;;;5062356;28;20083;-77
2023/04/08 09:51:32;;;;;;;1999.90;999.90;;;12.70;94.00;;;;;;5066962;28;20052;-76
2023/04/08 09:54:05;;;;;;;1999.90;999.90;;;12.60;94.70;;;;;;5063379;28;20069;-76
2023/04/08 09:56:51;;;;;;;1999.90;999.90;;;12.60;94.40;;;;;;5070333;28;20040;-76
2023/04/08 09:59:20;;;;;;;1999.90;999.90;;;12.30;94.10;;;;;;5066187;28;20029;-75
2023/04/08 10:01:52;;;;;;;1999.90;999.90;;;12.30;95.00;;;;;;5068378;28;20478;-77
2023/04/08 10:04:20;;;;;;;1999.90;999.90;;;12.30;95.00;;;;;;5072349;28;20048;-73
2023/04/08 10:06:59;;;;;;;1999.90;999.90;;;12.50;94.60;;;;;;5068104;28;20517;-73
2023/04/08 10:09:26;;;;;;;1999.90;999.90;;;12.40;95.20;;;;;;5067681;28;20461;-72
2023/04/08 10:11:52;;;;;;;1999.90;999.90;;;12.20;94.80;;;;;;5055997;28;20033;-71
2023/04/08 10:14:20;;;;;;;1999.90;999.90;;;12.10;96.50;;;;;;5055941;28;20033;-74
2023/04/08 10:16:46;;;;;;;1999.90;999.90;;;12.20;95.80;;;;;;5054271;28;20107;-74
2023/04/08 10:19:40;;;;;;;1999.90;999.90;;;12.30;95.90;;;;;;5054721;28;20061;-73
2023/04/08 10:22:29;;;;;;;1999.90;999.90;;;12.30;95.70;;;;;;5072733;28;20076;-73
2023/04/08 10:25:27;;;;;;;1999.90;999.90;;;12.50;95.20;;;;;;5068842;28;20029;-73
2023/04/08 10:27:52;;;;;;;1999.90;999.90;;;12.40;95.70;;;;;;5058118;28;20038;-78
2023/04/08 10:30:27;;;;;;;1999.90;999.90;;;12.40;95.50;;;;;;5055971;28;20032;-74
2023/04/08 10:33:00;;;;;;;1999.90;999.90;;;12.50;95.40;;;;;;5061290;28;20045;-73
2023/04/08 10:35:35;;;;;;;1999.90;999.90;;;12.60;95.40;;;;;;5074580;28;20028;-73
2023/04/08 10:38:01;;;;;;;1999.90;999.90;;;12.60;95.80;;;;;;5068014;28;20040;-74
2023/04/08 10:40:27;;;;;;;1999.90;999.90;;;12.50;95.80;;;;;;5076545;28;20121;-74
2023/04/08 10:42:56;;;;;;;1999.90;999.90;;;12.50;96.10;;;;;;5075525;28;20036;-75
2023/04/08 10:45:22;;;;;;;1999.90;999.90;;;12.30;96.10;;;;;;5078345;28;20033;-80
2023/04/08 10:47:48;;;;;;;1999.90;999.90;;;12.20;96.90;;;;;;5077356;28;20172;-78
2023/04/08 10:50:15;;;;;;;1999.90;999.90;;;12.20;96.90;;;;;;5077075;28;20080;-81
2023/04/08 10:52:48;;;;;;;1999.90;999.90;;;12.10;96.70;;;;;;5075346;28;20586;-77
2023/04/08 10:55:14;;;;;;;1999.90;999.90;;;11.80;96.70;;;;;;5076998;28;20433;-78
2023/04/08 10:57:40;;;;;;;1999.90;999.90;;;11.90;97.80;;;;;;5075951;28;20040;-81
2023/04/08 11:00:09;;;;;;;1999.90;999.90;;;11.80;97.20;;;;;;5075825;28;20761;-76
2023/04/08 11:02:37;;;;;;;1999.90;999.90;;;11.90;97.10;;;;;;5074840;28;20109;-79
2023/04/08 11:05:03;;;;;;;1999.90;999.90;;;11.90;96.90;;;;;;5076736;28;20032;-79
2023/04/08 11:07:29;;;;;;;1999.90;999.90;;;12.00;97.70;;;;;;5072855;28;20157;-77
2023/04/08 11:09:55;;;;;;;1999.90;999.90;;;12.20;96.40;;;;;;5077527;28;20060;-74
2023/04/08 11:12:21;;;;;;;1999.90;999.90;;;12.30;95.80;;;;;;5095973;28;20032;-74
2023/04/08 11:14:51;;;;;;;1999.90;999.90;;;12.40;95.10;;;;;;5093815;28;20071;-75
2023/04/08 11:17:18;;;;;;;1999.90;999.90;;;12.40;95.80;;;;;;5096023;28;20032;-75
2023/04/08 11:19:44;;;;;;;1999.90;999.90;;;12.30;95.50;;;;;;5097102;28;20468;-75
2023/04/08 11:22:12;;;;;;;1999.90;999.90;;;12.50;95.60;;;;;;5095736;28;20062;-75
2023/04/08 11:24:38;;;;;;;1999.90;999.90;;;12.50;95.60;;;;;;5091142;28;20036;-76
2023/04/08 11:27:05;;;;;;;1999.90;999.90;;;12.60;94.70;;;;;;5074772;28;20041;-76
2023/04/08 11:29:32;;;;;;;1999.90;999.90;;;12.60;94.60;;;;;;5075374;28;20025;-76
2023/04/08 11:31:57;;;;;;;1999.90;999.90;;;12.60;94.50;;;;;;5075984;28;20452;-77
2023/04/08 11:34:24;;;;;;;1999.90;999.90;;;12.80;93.70;;;;;;5074152;28;20036;-77
2023/04/08 11:36:52;;;;;;;1999.90;999.90;;;13.10;94.10;;;;;;5074393;28;20036;-77
2023/04/08 11:39:22;;;;;;;1999.90;999.90;;;13.10;93.80;;;;;;5074826;28;20402;-77
2023/04/08 11:41:47;;;;;;;1999.90;999.90;;;13.50;93.50;;;;;;5074856;28;20041;-78
2023/04/08 11:44:13;;;;;;;1999.90;999.90;;;13.60;93.80;;;;;;5075462;28;20033;-76
2023/04/08 11:46:39;;;;;;;1999.90;999.90;;;13.70;93.20;;;;;;5075433;28;20425;-77
2023/04/08 11:49:07;;;;;;;1999.90;999.90;;;13.80;92.20;;;;;;5075219;28;20028;-77
2023/04/08 11:51:34;;;;;;;1999.90;999.90;;;14.40;93.00;;;;;;5069154;28;20047;-77
2023/04/08 11:54:03;;;;;;;1999.90;999.90;;;14.70;91.30;;;;;;5074119;28;20029;-77
2023/04/08 11:56:29;;;;;;;1999.90;999.90;;;15.30;91.10;;;;;;5074555;28;20037;-77
2023/04/08 11:58:55;;;;;;;1999.90;999.90;;;15.00;90.40;;;;;;5075132;28;20563;-78
2023/04/08 12:01:21;;;;;;;1999.90;999.90;;;14.90;88.50;;;;;;5076195;28;20033;-78
2023/04/08 12:03:59;;;;;;;1999.90;999.90;;;15.20;88.50;;;;;;5075740;28;20025;-78
2023/04/08 12:06:26;;;;;;;1999.90;999.90;;;15.10;88.50;;;;;;5075330;28;20044;-77